createdAt,value
2022-08-03T00:00:02.564Z,1019.4
2022-08-03T00:01:02.742Z,1019.4
2022-08-03T00:02:08.364Z,1019.4
2022-08-03T00:03:02.329Z,1019.3
2022-08-03T00:04:02.299Z,1019.4
2022-08-03T00:05:02.155Z,1019.4
2022-08-03T00:06:05.483Z,1019.4
2022-08-03T00:07:02.424Z,1019.4
2022-08-03T00:08:02.775Z,1019.4
2022-08-03T00:09:02.304Z,1019.4
2022-08-03T00:10:02.132Z,1019.4
2022-08-03T00:11:02.107Z,1019.4
2022-08-03T00:12:01.925Z,1019.4
2022-08-03T00:13:02.869Z,1019.4
2022-08-03T00:14:02.720Z,1019.3
2022-08-03T00:15:11.438Z,1019.4
2022-08-03T00:16:01.824Z,1019.4
2022-08-03T00:17:02.878Z,1019.4
2022-08-03T00:18:02.740Z,1019.4
2022-08-03T00:19:02.794Z,1019.3
2022-08-03T00:20:02.616Z,1019.3
2022-08-03T00:21:02.585Z,1019.3
2022-08-03T00:22:02.525Z,1019.3
2022-08-03T00:23:02.369Z,1019.4
2022-08-03T00:24:02.315Z,1019.3
2022-08-03T00:25:02.139Z,1019.3
2022-08-03T00:26:02.146Z,1019.4
2022-08-03T00:27:01.971Z,1019.3
2022-08-03T00:28:01.941Z,1019.4
2022-08-03T00:29:02.869Z,1019.3
2022-08-03T00:30:02.751Z,1019.4
2022-08-03T00:31:01.904Z,1019.4
2022-08-03T00:32:03.131Z,1019.5
2022-08-03T00:33:03.122Z,1019.4
2022-08-03T00:34:04.507Z,1019.4
2022-08-03T00:35:17.987Z,1019.4
2022-08-03T00:36:02.254Z,1019.3
2022-08-03T00:37:02.248Z,1019.4
2022-08-03T00:38:02.071Z,1019.3
2022-08-03T00:39:02.054Z,1019.4
2022-08-03T00:40:05.856Z,1019.4
2022-08-03T00:41:02.708Z,1019.3
2022-08-03T00:42:02.717Z,1019.4
2022-08-03T00:43:02.527Z,1019.4
2022-08-03T00:44:02.513Z,1019.3
2022-08-03T00:45:02.447Z,1019.4
2022-08-03T00:46:02.495Z,1019.3
2022-08-03T00:47:02.473Z,1019.4
2022-08-03T00:48:02.394Z,1019.4
2022-08-03T00:49:02.441Z,1019.4
2022-08-03T00:50:02.427Z,1019.4
2022-08-03T00:51:02.382Z,1019.4
2022-08-03T00:52:10.200Z,1019.4
2022-08-03T00:53:02.019Z,1019.4
2022-08-03T00:54:02.000Z,1019.4
2022-08-03T00:55:01.834Z,1019.4
2022-08-03T00:56:02.786Z,1019.4
2022-08-03T00:57:02.612Z,1019.5
2022-08-03T00:58:02.593Z,1019.4
2022-08-03T00:59:02.534Z,1019.4
2022-08-03T01:00:02.356Z,1019.4
2022-08-03T01:01:02.923Z,1019.5
2022-08-03T01:02:02.894Z,1019.4
2022-08-03T01:03:02.720Z,1019.4
2022-08-03T01:04:02.685Z,1019.5
2022-08-03T01:05:02.521Z,1019.4
2022-08-03T01:06:02.493Z,1019.4
2022-08-03T01:07:02.757Z,1019.4
2022-08-03T01:08:02.709Z,1019.4
2022-08-03T01:09:02.550Z,1019.4
2022-08-03T01:10:02.514Z,1019.4
2022-08-03T01:11:02.337Z,1019.5
2022-08-03T01:12:02.529Z,1019.4
2022-08-03T01:13:02.457Z,1019.4
2022-08-03T01:14:20.443Z,1019.4
2022-08-03T01:15:02.792Z,1019.4
2022-08-03T01:16:02.110Z,1019.4
2022-08-03T01:17:02.088Z,1019.4
2022-08-03T01:18:01.880Z,1019.4
2022-08-03T01:19:02.858Z,1019.4
2022-08-03T01:20:02.696Z,1019.4
2022-08-03T01:21:03.491Z,1019.4
2022-08-03T01:22:02.325Z,1019.4
2022-08-03T01:23:02.291Z,1019.4
2022-08-03T01:24:02.099Z,1019.4
2022-08-03T01:25:02.100Z,1019.4
2022-08-03T01:26:01.908Z,1019.4
2022-08-03T01:27:03.907Z,1019.4
2022-08-03T01:28:02.709Z,1019.4
2022-08-03T01:29:02.689Z,1019.4
2022-08-03T01:30:02.615Z,1019.4
2022-08-03T01:31:01.831Z,1019.4
2022-08-03T01:33:03.322Z,1019.4
2022-08-03T01:33:04.116Z,1019.5
2022-08-03T01:34:09.281Z,1019.4
2022-08-03T01:35:02.494Z,1019.5
2022-08-03T01:36:02.420Z,1019.5
2022-08-03T01:37:02.336Z,1019.4
2022-08-03T01:38:02.174Z,1019.4
2022-08-03T01:39:02.151Z,1019.5
2022-08-03T01:40:01.957Z,1019.4
2022-08-03T01:41:02.282Z,1019.4
2022-08-03T01:42:02.639Z,1019.4
2022-08-03T01:43:02.474Z,1019.5
2022-08-03T01:44:31.359Z,1019.5
2022-08-03T01:45:02.162Z,1019.5
2022-08-03T01:46:02.426Z,1019.5
2022-08-03T01:47:02.374Z,1019.5
2022-08-03T01:48:02.156Z,1019.4
2022-08-03T01:49:10.190Z,1019.4
2022-08-03T01:50:02.010Z,1019.4
2022-08-03T01:51:01.988Z,1019.4
2022-08-03T01:52:05.906Z,1019.4
2022-08-03T01:53:02.725Z,1019.3
2022-08-03T01:54:02.709Z,1019.3
2022-08-03T01:55:02.538Z,1019.3
2022-08-03T01:56:02.497Z,1019.3
2022-08-03T01:57:02.407Z,1019.3
2022-08-03T01:58:07.295Z,1019.3
2022-08-03T01:59:02.123Z,1019.3
2022-08-03T02:00:02.091Z,1019.3
2022-08-03T02:01:02.174Z,1019.2
2022-08-03T02:02:35.071Z,1019.3
2022-08-03T02:03:01.973Z,1019.3
2022-08-03T02:04:01.954Z,1019.3
2022-08-03T02:05:02.878Z,1019.3
2022-08-03T02:07:03.667Z,1019.3
2022-08-03T02:07:03.978Z,1019.3
2022-08-03T02:08:01.893Z,1019.3
2022-08-03T02:09:02.827Z,1019.2
2022-08-03T02:10:02.652Z,1019.3
2022-08-03T02:11:02.664Z,1019.3
2022-08-03T02:12:02.566Z,1019.2
2022-08-03T02:13:02.378Z,1019.2
2022-08-03T02:14:02.357Z,1019.3
2022-08-03T02:15:02.338Z,1019.2
2022-08-03T02:16:02.404Z,1019.2
2022-08-03T02:17:02.380Z,1019.2
2022-08-03T02:18:02.302Z,1019.2
2022-08-03T02:19:02.109Z,1019.2
2022-08-03T02:20:02.134Z,1019.2
2022-08-03T02:22:00.967Z,1019.2
2022-08-03T02:22:02.470Z,1019.3
2022-08-03T02:23:02.395Z,1019.3
2022-08-03T02:24:02.311Z,1019.2
2022-08-03T02:25:02.122Z,1019.3
2022-08-03T02:26:02.570Z,1019.3
2022-08-03T02:27:02.610Z,1019.2
2022-08-03T02:28:02.423Z,1019.2
2022-08-03T07:57:06.235Z,1020.2
2022-08-03T07:57:15.834Z,1020.2
2022-08-03T07:58:02.624Z,1020.2
2022-08-03T07:59:02.145Z,1020.3
2022-08-03T08:00:03.458Z,1020.2
2022-08-03T08:01:02.076Z,1020.2
2022-08-03T08:02:02.041Z,1020.3
2022-08-03T08:03:01.823Z,1020.2
2022-08-03T08:04:02.694Z,1020.3
2022-08-03T08:05:06.504Z,1020.2
2022-08-03T08:06:02.304Z,1020.2
2022-08-03T08:07:02.115Z,1020.2
2022-08-03T08:08:01.930Z,1020.2
2022-08-03T08:09:02.781Z,1020.2
2022-08-03T08:10:02.739Z,1020.3
2022-08-03T08:11:02.682Z,1020.2
2022-08-03T08:12:02.571Z,1020.3
2022-08-03T08:13:02.435Z,1020.3
2022-08-03T08:14:02.279Z,1020.2
2022-08-03T08:15:02.150Z,1020.2
2022-08-03T08:16:02.134Z,1020.3
2022-08-03T08:17:07.800Z,1020.3
2022-08-03T08:18:03.842Z,1020.2
2022-08-03T08:19:02.667Z,1020.3
2022-08-03T08:20:02.555Z,1020.3
2022-08-03T08:21:03.369Z,1020.2
2022-08-03T08:22:03.452Z,1020.2
2022-08-03T08:23:09.688Z,1020.2
2022-08-03T08:24:02.892Z,1020.3
2022-08-03T08:25:02.863Z,1020.3
2022-08-03T08:26:02.704Z,1020.3
2022-08-03T08:27:02.615Z,1020.3
2022-08-03T08:28:34.031Z,1020.2
2022-08-03T08:29:01.877Z,1020.3
2022-08-03T08:30:19.071Z,1020.3
2022-08-03T08:31:02.763Z,1020.3
2022-08-03T08:32:02.601Z,1020.2
2022-08-03T08:33:02.460Z,1020.3
2022-08-03T08:34:05.300Z,1020.3
2022-08-03T08:35:02.138Z,1020.3
2022-08-03T08:36:01.979Z,1020.3
2022-08-03T08:37:01.834Z,1020.3
2022-08-03T08:38:06.314Z,1020.3
2022-08-03T08:39:02.162Z,1020.3
2022-08-03T08:40:01.996Z,1020.3
2022-08-03T08:41:01.835Z,1020.3
2022-08-03T08:42:02.716Z,1020.3
2022-08-03T08:43:02.576Z,1020.3
2022-08-03T08:44:02.518Z,1020.4
2022-08-03T08:45:02.539Z,1020.3
2022-08-03T08:46:02.177Z,1020.3
2022-08-03T08:47:02.029Z,1020.4
2022-08-03T08:48:08.707Z,1020.3
2022-08-03T08:49:05.760Z,1020.4
2022-08-03T08:50:28.331Z,1020.3
2022-08-03T08:51:02.255Z,1020.2
2022-08-03T08:52:02.312Z,1020.3
2022-08-03T08:53:02.112Z,1020.3
2022-08-03T08:54:02.015Z,1020.3
2022-08-03T08:55:01.825Z,1020.3
2022-08-03T08:56:02.703Z,1020.3
2022-08-03T08:57:02.628Z,1020.2
2022-08-03T08:58:02.493Z,1020.2
2022-08-03T08:59:04.181Z,1020.4
2022-08-03T09:00:01.799Z,1020.3
2022-08-03T09:01:02.058Z,1020.3
2022-08-03T09:02:04.684Z,1020.2
2022-08-03T09:03:03.416Z,1020.3
2022-08-03T09:04:02.247Z,1020.3
2022-08-03T09:05:08.038Z,1020.3
2022-08-03T09:06:01.850Z,1020.3
2022-08-03T09:07:30.087Z,1020.3
2022-08-03T09:08:02.550Z,1020.3
2022-08-03T09:09:02.712Z,1020.3
2022-08-03T09:10:14.210Z,1020.3
2022-08-03T09:11:02.059Z,1020.3
2022-08-03T09:12:42.677Z,1020.3
2022-08-03T09:13:03.945Z,1020.4
2022-08-03T09:14:01.838Z,1020.4
2022-08-03T09:15:17.885Z,1020.3
2022-08-03T09:16:02.186Z,1020.3
2022-08-03T09:17:02.013Z,1020.3
2022-08-03T09:18:01.855Z,1020.3
2022-08-03T09:19:02.774Z,1020.3
2022-08-03T09:20:04.326Z,1020.3
2022-08-03T09:21:33.104Z,1020.2
2022-08-03T09:22:02.360Z,1020.2
2022-08-03T09:23:51.297Z,1020.3
2022-08-03T09:24:10.479Z,1020.2
2022-08-03T09:25:25.349Z,1020.2
2022-08-03T09:26:02.340Z,1020.2
2022-08-03T09:27:02.162Z,1020.1
2022-08-03T09:28:02.027Z,1020.2
2022-08-03T09:29:14.694Z,1020.1
2022-08-03T09:30:02.076Z,1020.1
2022-08-03T09:31:02.124Z,1020.2
2022-08-03T09:32:02.048Z,1020.2
2022-08-03T09:33:01.841Z,1020.2
2022-08-03T09:34:02.730Z,1020.2
2022-08-03T09:35:02.709Z,1020.1
2022-08-03T09:36:02.664Z,1020.1
2022-08-03T09:37:02.519Z,1020.1
2022-08-03T09:38:14.779Z,1020.2
2022-08-03T09:39:02.599Z,1020.2
2022-08-03T09:40:02.475Z,1020.1
2022-08-03T09:41:02.345Z,1020.1
2022-08-03T09:42:02.195Z,1020.1
2022-08-03T09:43:02.108Z,1020.1
2022-08-03T09:44:02.548Z,1020.2
2022-08-03T09:45:02.373Z,1020.1
2022-08-03T09:46:02.298Z,1020.1
2022-08-03T09:47:02.156Z,1020.1
2022-08-03T09:48:01.962Z,1020.1
2022-08-03T09:49:01.971Z,1020.2
2022-08-03T09:50:01.765Z,1020.2
2022-08-03T09:52:25.915Z,1020.1
2022-08-03T09:52:52.885Z,1020.1
2022-08-03T09:53:01.784Z,1020.2
2022-08-03T09:54:02.663Z,1020.1
2022-08-03T09:55:02.573Z,1020.1
2022-08-03T09:56:37.488Z,1020.1
2022-08-03T09:57:02.337Z,1020.1
2022-08-03T09:58:02.191Z,1020.2
2022-08-03T09:59:02.052Z,1020.2
2022-08-03T10:00:09.019Z,1020.1
2022-08-03T10:01:03.143Z,1020.2
2022-08-03T10:02:02.103Z,1020.2
2022-08-03T10:03:01.985Z,1020.2
2022-08-03T10:04:05.595Z,1020.2
2022-08-03T10:05:02.509Z,1020.2
2022-08-03T10:06:02.347Z,1020.1
2022-08-03T10:07:02.208Z,1020.2
2022-08-03T10:08:02.064Z,1020.1
2022-08-03T10:09:01.939Z,1020.1
2022-08-03T10:10:32.681Z,1020.1
2022-08-03T10:11:02.507Z,1020.1
2022-08-03T10:12:02.377Z,1020.1
2022-08-03T10:13:02.264Z,1020.1
2022-08-03T10:14:02.208Z,1020
2022-08-03T10:15:02.052Z,1020.1
2022-08-03T10:16:26.237Z,1020
2022-08-03T10:17:02.082Z,1020
2022-08-03T10:18:01.939Z,1020
2022-08-03T10:19:01.809Z,1020
2022-08-03T10:20:02.675Z,1020
2022-08-03T10:21:02.727Z,1020
2022-08-03T10:22:02.548Z,1020
2022-08-03T10:23:02.437Z,1020
2022-08-03T10:24:02.277Z,1020
2022-08-03T10:25:02.169Z,1020
2022-08-03T10:26:01.991Z,1020
2022-08-03T10:27:01.903Z,1019.9
2022-08-03T10:28:02.771Z,1019.9
2022-08-03T10:29:02.669Z,1019.9
2022-08-03T10:30:02.608Z,1019.9
2022-08-03T10:31:02.399Z,1019.9
2022-08-03T10:32:02.330Z,1019.9
2022-08-03T10:33:02.156Z,1019.9
2022-08-03T10:34:02.093Z,1019.9
2022-08-03T10:35:21.772Z,1020
2022-08-03T10:36:02.765Z,1020
2022-08-03T10:37:02.698Z,1019.9
2022-08-03T10:38:02.506Z,1020
2022-08-03T10:39:02.496Z,1019.9
2022-08-03T10:40:02.415Z,1019.9
2022-08-03T10:41:02.248Z,1019.9
2022-08-03T10:42:03.488Z,1020
2022-08-03T10:43:02.421Z,1020
2022-08-03T10:44:02.248Z,1019.9
2022-08-03T10:45:02.224Z,1019.9
2022-08-03T10:46:02.005Z,1020
2022-08-03T10:47:01.924Z,1019.9
2022-08-03T10:48:02.875Z,1019.9
2022-08-03T10:49:03.066Z,1019.9
2022-08-03T10:50:02.029Z,1019.9
2022-08-03T10:51:01.859Z,1019.9
2022-08-03T10:52:30.430Z,1019.9
2022-08-03T10:53:04.529Z,1019.8
2022-08-03T10:54:02.666Z,1019.9
2022-08-03T10:55:10.225Z,1019.9
2022-08-03T10:56:05.875Z,1019.8
2022-08-03T10:57:15.085Z,1019.9
2022-08-03T10:58:02.002Z,1019.8
2022-08-03T10:59:09.807Z,1019.9
2022-08-03T11:00:02.599Z,1019.9
2022-08-03T11:01:02.109Z,1019.8
2022-08-03T11:02:02.069Z,1019.8
2022-08-03T11:03:01.902Z,1019.8
2022-08-03T11:04:15.261Z,1019.8
2022-08-03T11:05:02.469Z,1019.8
2022-08-03T11:06:02.495Z,1019.8
2022-08-03T11:07:02.426Z,1019.8
2022-08-03T11:08:02.271Z,1019.7
2022-08-03T11:09:04.545Z,1019.8
2022-08-03T11:10:02.459Z,1019.8
2022-08-03T11:11:02.285Z,1019.8
2022-08-03T11:12:02.234Z,1019.8
2022-08-03T11:13:02.049Z,1019.8
2022-08-03T11:14:01.992Z,1019.7
2022-08-03T11:15:01.933Z,1019.7
2022-08-03T11:16:14.162Z,1019.7
2022-08-03T11:17:02.102Z,1019.7
2022-08-03T11:18:02.000Z,1019.7
2022-08-03T11:19:04.186Z,1019.7
2022-08-03T11:20:02.019Z,1019.7
2022-08-03T11:21:02.043Z,1019.7
2022-08-03T11:22:01.885Z,1019.6
2022-08-03T11:23:02.864Z,1019.6
2022-08-03T11:24:07.411Z,1019.7
2022-08-03T11:25:02.278Z,1019.7
2022-08-03T11:26:02.216Z,1019.7
2022-08-03T11:27:06.416Z,1019.7
2022-08-03T11:28:02.231Z,1019.7
2022-08-03T11:29:02.178Z,1019.6
2022-08-03T11:30:02.076Z,1019.6
2022-08-03T11:31:02.775Z,1019.6
2022-08-03T11:32:02.801Z,1019.6
2022-08-03T11:33:02.608Z,1019.5
2022-08-03T11:34:02.582Z,1019.6
2022-08-03T11:35:02.508Z,1019.6
2022-08-03T11:36:02.378Z,1019.6
2022-08-03T11:37:02.314Z,1019.7
2022-08-03T11:38:06.099Z,1019.6
2022-08-03T11:39:01.915Z,1019.6
2022-08-03T11:40:03.419Z,1019.6
2022-08-03T11:41:02.320Z,1019.6
2022-08-03T11:42:02.080Z,1019.6
2022-08-03T11:43:02.070Z,1019.6
2022-08-03T11:44:01.911Z,1019.5
2022-08-03T11:45:02.846Z,1019.6
2022-08-03T11:46:02.796Z,1019.6
2022-08-03T11:47:02.777Z,1019.5
2022-08-03T11:48:02.604Z,1019.5
2022-08-03T11:49:11.294Z,1019.6
2022-08-03T11:50:02.742Z,1019.5
2022-08-03T11:51:02.566Z,1019.5
2022-08-03T11:52:02.526Z,1019.5
2022-08-03T11:53:02.433Z,1019.5
2022-08-03T11:54:02.231Z,1019.4
2022-08-03T11:55:02.199Z,1019.5
2022-08-03T11:56:01.982Z,1019.4
2022-08-03T11:57:01.953Z,1019.4
2022-08-03T11:59:22.741Z,1019.4
2022-08-03T11:59:22.981Z,1019.4
2022-08-03T12:00:01.795Z,1019.4
2022-08-03T12:01:02.100Z,1019.4
2022-08-03T12:02:02.055Z,1019.4
2022-08-03T12:03:02.186Z,1019.4
2022-08-03T12:04:02.137Z,1019.4
2022-08-03T12:05:01.972Z,1019.3
2022-08-03T12:06:02.691Z,1019.3
2022-08-03T12:07:02.131Z,1019.3
2022-08-03T12:08:07.376Z,1019.4
2022-08-03T12:09:02.323Z,1019.3
2022-08-03T12:10:02.135Z,1019.3
2022-08-03T12:11:02.068Z,1019.3
2022-08-03T12:12:01.956Z,1019.3
2022-08-03T12:13:02.884Z,1019.3
2022-08-03T12:14:52.710Z,1019.3
2022-08-03T12:15:02.603Z,1019.3
2022-08-03T12:16:02.435Z,1019.3
2022-08-03T12:17:02.347Z,1019.3
2022-08-03T12:18:02.162Z,1019.3
2022-08-03T12:19:02.186Z,1019.3
2022-08-03T12:20:01.999Z,1019.3
2022-08-03T12:21:02.038Z,1019.3
2022-08-03T12:22:01.858Z,1019.3
2022-08-03T12:23:04.637Z,1019.3
2022-08-03T12:24:02.481Z,1019.3
2022-08-03T12:25:02.465Z,1019.2
2022-08-03T12:26:03.228Z,1019.2
2022-08-03T12:27:02.014Z,1019.3
2022-08-03T12:28:02.050Z,1019.2
2022-08-03T12:29:01.892Z,1019.2
2022-08-03T12:30:02.857Z,1019.2
2022-08-03T12:31:02.604Z,1019.1
2022-08-03T12:32:02.786Z,1019.2
2022-08-03T12:33:02.705Z,1019.2
2022-08-03T12:34:02.535Z,1019.1
2022-08-03T12:35:02.912Z,1019.2
2022-08-03T12:36:02.839Z,1019.2
2022-08-03T12:37:23.636Z,1019.2
2022-08-03T12:38:01.874Z,1019.2
2022-08-03T12:39:02.854Z,1019.2
2022-08-03T12:40:14.195Z,1019.2
2022-08-03T12:41:02.221Z,1019.2
2022-08-03T12:42:02.180Z,1019.1
2022-08-03T12:43:02.010Z,1019.1
2022-08-03T12:44:01.932Z,1019.2
2022-08-03T12:45:02.827Z,1019.2
2022-08-03T12:46:02.736Z,1019.2
2022-08-03T12:47:02.657Z,1019.1
2022-08-03T12:48:02.605Z,1019.2
2022-08-03T12:49:02.720Z,1019.2
2022-08-03T12:50:02.751Z,1019.1
2022-08-03T12:51:02.599Z,1019.1
2022-08-03T12:52:08.208Z,1019.1
2022-08-03T12:53:02.027Z,1019.1
2022-08-03T12:54:01.919Z,1019.1
2022-08-03T12:55:02.861Z,1019.1
2022-08-03T12:56:06.643Z,1019.2
2022-08-03T12:57:02.461Z,1019.1
2022-08-03T12:58:02.428Z,1019.1
2022-08-03T12:59:02.348Z,1019.1
2022-08-03T13:00:02.280Z,1019.1
2022-08-03T13:01:10.835Z,1019.1
2022-08-03T13:02:10.184Z,1019
2022-08-03T13:03:43.109Z,1019
2022-08-03T13:04:04.776Z,1019.1
2022-08-03T13:05:02.705Z,1019.1
2022-08-03T13:06:02.508Z,1019.1
2022-08-03T13:07:03.925Z,1019
2022-08-03T13:08:02.846Z,1019.1
2022-08-03T13:09:02.675Z,1019.1
2022-08-03T13:10:08.742Z,1019.1
2022-08-03T13:11:02.587Z,1019
2022-08-03T13:12:03.248Z,1019
2022-08-03T13:13:02.060Z,1019
2022-08-03T13:14:02.038Z,1019
2022-08-03T13:15:01.892Z,1019
2022-08-03T13:16:02.544Z,1019.1
2022-08-03T13:17:02.481Z,1019
2022-08-03T13:18:02.417Z,1019
2022-08-03T13:19:02.867Z,1019
2022-08-03T13:20:02.873Z,1019
2022-08-03T13:21:02.861Z,1019
2022-08-03T13:22:05.372Z,1019
2022-08-03T13:23:02.218Z,1018.9
2022-08-03T13:24:02.162Z,1019
2022-08-03T13:25:01.993Z,1019
2022-08-03T13:26:01.952Z,1018.9
2022-08-03T13:28:14.261Z,1019
2022-08-03T13:28:14.847Z,1019
2022-08-03T13:29:01.790Z,1019
2022-08-03T13:30:02.771Z,1019
2022-08-03T13:31:03.072Z,1019
2022-08-03T13:32:02.304Z,1019
2022-08-03T13:33:02.069Z,1018.9
2022-08-03T13:34:02.023Z,1018.9
2022-08-03T13:35:01.846Z,1018.9
2022-08-03T13:36:02.857Z,1018.9
2022-08-03T13:37:10.739Z,1018.9
2022-08-03T13:38:02.707Z,1018.9
2022-08-03T13:39:09.341Z,1018.9
2022-08-03T13:40:06.708Z,1019
2022-08-03T13:41:05.548Z,1018.9
2022-08-03T13:42:02.720Z,1018.9
2022-08-03T13:43:02.718Z,1018.8
2022-08-03T13:44:30.396Z,1019
2022-08-03T13:45:02.188Z,1018.9
2022-08-03T13:46:02.531Z,1019
2022-08-03T13:47:02.430Z,1019
2022-08-03T13:48:02.226Z,1018.9
2022-08-03T13:49:02.202Z,1018.9
2022-08-03T13:50:03.901Z,1019
2022-08-03T13:51:23.266Z,1018.9
2022-08-03T13:52:02.081Z,1018.9
2022-08-03T13:53:02.070Z,1018.8
2022-08-03T13:54:01.874Z,1018.8
2022-08-03T13:55:02.971Z,1018.9
2022-08-03T13:56:01.808Z,1018.8
2022-08-03T13:58:08.029Z,1018.8
2022-08-03T13:58:12.341Z,1018.9
2022-08-03T13:59:02.207Z,1018.8
2022-08-03T14:00:02.481Z,1018.8
2022-08-03T14:01:02.422Z,1018.9
2022-08-03T14:02:02.551Z,1018.7
2022-08-03T14:03:15.467Z,1018.8
2022-08-03T14:04:02.410Z,1018.7
2022-08-03T14:05:02.175Z,1018.8
2022-08-03T14:06:02.142Z,1018.8
2022-08-03T14:07:01.982Z,1018.7
2022-08-03T14:08:06.001Z,1018.8
2022-08-03T14:09:01.820Z,1018.8
2022-08-03T14:10:03.089Z,1018.8
2022-08-03T14:11:01.986Z,1018.7
2022-08-03T14:12:09.377Z,1018.7
2022-08-03T14:13:02.319Z,1018.8
2022-08-03T14:14:02.116Z,1018.7
2022-08-03T14:15:02.434Z,1018.8
2022-08-03T14:16:03.354Z,1018.8
2022-08-03T14:17:02.991Z,1018.8
2022-08-03T14:18:02.782Z,1018.8
2022-08-03T14:19:05.125Z,1018.7
2022-08-03T14:20:48.835Z,1018.8
2022-08-03T14:21:07.547Z,1018.7
2022-08-03T14:22:07.328Z,1018.7
2022-08-03T14:23:02.167Z,1018.7
2022-08-03T14:24:02.091Z,1018.7
2022-08-03T14:25:10.126Z,1018.7
2022-08-03T14:26:02.494Z,1018.7
2022-08-03T14:27:09.726Z,1018.7
2022-08-03T14:28:02.625Z,1018.7
2022-08-03T14:29:02.449Z,1018.7
2022-08-03T14:30:02.443Z,1018.7
2022-08-03T14:31:02.471Z,1018.6
2022-08-03T14:32:13.887Z,1018.7
2022-08-03T14:33:02.729Z,1018.6
2022-08-03T14:34:02.736Z,1018.6
2022-08-03T14:35:02.591Z,1018.6
2022-08-03T14:36:03.157Z,1018.6
2022-08-03T14:37:01.987Z,1018.6
2022-08-03T14:38:01.871Z,1018.6
2022-08-03T14:39:03.103Z,1018.6
2022-08-03T14:40:02.341Z,1018.6
2022-08-03T14:41:02.342Z,1018.5
2022-08-03T14:42:02.126Z,1018.5
2022-08-03T14:43:02.107Z,1018.5
2022-08-03T14:44:03.172Z,1018.6
2022-08-03T14:45:20.666Z,1018.6
2022-08-03T14:46:01.930Z,1018.4
2022-08-03T14:47:01.904Z,1018.6
2022-08-03T14:50:45.600Z,1018.5
2022-08-03T14:50:45.615Z,1018.5
2022-08-03T14:50:46.972Z,1018.4
2022-08-03T14:52:02.028Z,1018.5
2022-08-03T14:53:06.694Z,1018.5
2022-08-03T14:54:02.483Z,1018.5
2022-08-03T14:55:02.484Z,1018.5
2022-08-03T14:56:11.015Z,1018.4
2022-08-03T14:57:01.934Z,1018.4
2022-08-03T14:58:01.895Z,1018.4
2022-08-03T14:59:02.855Z,1018.3
2022-08-03T15:00:02.714Z,1018.4
2022-08-03T15:01:03.217Z,1018.4
2022-08-03T15:02:23.141Z,1018.3
2022-08-03T15:03:02.885Z,1018.2
2022-08-03T15:04:02.785Z,1018.1
2022-08-03T15:05:02.789Z,1018
2022-08-03T15:06:02.613Z,1018.2
2022-08-03T15:07:02.624Z,1018.3
2022-08-03T15:08:09.534Z,1018.3
2022-08-03T15:09:24.455Z,1018.3
2022-08-03T15:10:02.961Z,1018.4
2022-08-03T15:11:05.295Z,1018.4
2022-08-03T15:12:02.099Z,1018.3
2022-08-03T15:13:02.070Z,1018.3
2022-08-03T15:14:09.770Z,1018.4
2022-08-03T15:15:02.664Z,1018.3
2022-08-03T15:16:02.683Z,1018.3
2022-08-03T15:17:02.690Z,1018.3
2022-08-03T15:18:02.492Z,1018.3
2022-08-03T15:20:24.351Z,1018.3
2022-08-03T15:20:45.227Z,1018.3
2022-08-03T15:21:02.633Z,1018.3
2022-08-03T15:22:02.641Z,1018.3
2022-08-03T15:23:02.516Z,1018.3
2022-08-03T15:24:02.442Z,1018.3
2022-08-03T15:25:02.365Z,1018.3
2022-08-03T15:26:41.292Z,1018.3
2022-08-03T15:27:06.936Z,1018.3
2022-08-03T15:28:05.017Z,1018.3
2022-08-03T15:29:01.842Z,1018.3
2022-08-03T15:30:10.864Z,1018.2
2022-08-03T15:31:02.415Z,1018.2
2022-08-03T15:32:09.843Z,1018.2
2022-08-03T15:33:02.812Z,1018.3
2022-08-03T15:34:02.663Z,1018.3
2022-08-03T15:35:02.644Z,1018.3
2022-08-03T15:36:02.571Z,1018.2
2022-08-03T15:37:02.390Z,1018.2
2022-08-03T15:38:09.940Z,1018.2
2022-08-03T15:39:02.978Z,1018.2
2022-08-03T15:40:02.116Z,1018.2
2022-08-03T15:41:02.074Z,1018.2
2022-08-03T15:42:01.879Z,1018.2
2022-08-03T15:43:02.908Z,1018.2
2022-08-03T15:44:09.714Z,1018.2
2022-08-03T15:45:02.551Z,1018.2
2022-08-03T15:46:30.474Z,1018.2
2022-08-03T15:47:02.315Z,1018.2
2022-08-03T15:48:02.299Z,1018.2
2022-08-03T15:49:02.099Z,1018.2
2022-08-03T15:50:10.022Z,1018.2
2022-08-03T15:51:01.847Z,1018.2
2022-08-03T15:52:02.829Z,1018.2
2022-08-03T15:53:02.639Z,1018.1
2022-08-03T15:54:03.287Z,1018.1
2022-08-03T15:55:02.675Z,1018.2
2022-08-03T15:56:15.470Z,1018.2
2022-08-03T15:57:01.954Z,1018.1
2022-08-03T15:59:14.345Z,1018.1
2022-08-03T15:59:14.416Z,1018.1
2022-08-03T16:00:02.252Z,1018.1
2022-08-03T16:01:02.066Z,1018.1
2022-08-03T16:02:02.276Z,1018.2
2022-08-03T16:03:02.120Z,1018.1
2022-08-03T16:04:02.104Z,1018.1
2022-08-03T16:05:01.910Z,1018.1
2022-08-03T16:06:01.878Z,1018.1
2022-08-03T16:07:02.758Z,1018
2022-08-03T16:08:10.379Z,1018
2022-08-03T16:09:02.016Z,1018.1
2022-08-03T16:10:02.025Z,1018
2022-08-03T16:11:01.843Z,1018.1
2022-08-03T16:12:02.801Z,1018.1
2022-08-03T16:13:02.653Z,1018
2022-08-03T16:14:51.710Z,1018.1
2022-08-03T16:15:02.820Z,1018
2022-08-03T16:16:02.474Z,1018
2022-08-03T16:17:02.395Z,1018
2022-08-03T16:18:02.163Z,1018
2022-08-03T16:19:06.093Z,1018
2022-08-03T16:20:34.548Z,1017.9
2022-08-03T16:21:02.113Z,1017.9
2022-08-03T16:22:03.734Z,1017.9
2022-08-03T16:23:14.637Z,1017.9
2022-08-03T16:24:14.671Z,1017.9
2022-08-03T16:25:02.505Z,1017.9
2022-08-03T16:26:09.469Z,1017.9
2022-08-03T16:27:02.337Z,1017.9
2022-08-03T16:28:14.571Z,1017.9
2022-08-03T16:29:02.656Z,1017.9
2022-08-03T16:30:02.123Z,1017.8
2022-08-03T16:31:02.058Z,1017.8
2022-08-03T16:32:09.707Z,1017.8
2022-08-03T16:33:02.681Z,1017.8
2022-08-03T16:34:02.713Z,1017.8
2022-08-03T16:35:02.738Z,1017.9
2022-08-03T16:36:02.586Z,1017.8
2022-08-03T16:37:39.314Z,1017.8
2022-08-03T16:38:12.300Z,1017.8
2022-08-03T16:39:02.494Z,1017.8
2022-08-03T16:40:02.430Z,1017.9
2022-08-03T16:41:02.246Z,1017.8
2022-08-03T16:42:02.411Z,1017.8
2022-08-03T16:43:02.168Z,1017.8
2022-08-03T16:44:10.236Z,1017.9
2022-08-03T16:45:02.112Z,1017.9
2022-08-03T16:46:02.161Z,1017.9
2022-08-03T16:47:02.167Z,1017.8
2022-08-03T16:48:06.519Z,1017.9
2022-08-03T16:49:02.297Z,1017.9
2022-08-03T16:50:19.205Z,1017.8
2022-08-03T16:51:02.619Z,1017.9
2022-08-03T16:52:02.497Z,1017.9
2022-08-03T16:53:03.342Z,1017.8
2022-08-03T16:54:14.035Z,1017.8
2022-08-03T16:55:04.042Z,1017.8
2022-08-03T16:56:10.538Z,1017.9
2022-08-03T16:57:02.853Z,1017.8
2022-08-03T16:58:03.067Z,1017.9
2022-08-03T16:59:04.258Z,1017.9
2022-08-03T17:00:03.343Z,1018
2022-08-03T17:01:24.523Z,1018
2022-08-03T17:02:10.666Z,1017.9
2022-08-03T17:03:24.174Z,1017.9
2022-08-03T17:04:05.640Z,1018
2022-08-03T17:05:02.895Z,1018
2022-08-03T17:06:02.631Z,1018
2022-08-03T17:07:03.304Z,1018
2022-08-03T17:08:13.200Z,1018
2022-08-03T17:09:03.710Z,1018
2022-08-03T17:10:02.389Z,1017.9
2022-08-03T17:11:02.312Z,1018
2022-08-03T17:12:02.271Z,1018
2022-08-03T17:13:05.786Z,1018
2022-08-03T17:14:09.973Z,1018
2022-08-03T17:15:01.938Z,1017.9
2022-08-03T17:16:02.671Z,1018
2022-08-03T17:17:04.381Z,1018
2022-08-03T17:18:02.977Z,1018
2022-08-03T17:19:04.306Z,1018
2022-08-03T17:20:09.633Z,1018
2022-08-03T17:21:02.819Z,1018
2022-08-03T17:22:05.253Z,1018
2022-08-03T17:23:04.328Z,1018
2022-08-03T17:24:02.631Z,1018
2022-08-03T17:25:08.168Z,1018.1
2022-08-03T17:26:20.439Z,1018.1
2022-08-03T17:27:02.715Z,1018
2022-08-03T17:28:58.544Z,1018
2022-08-03T17:29:13.333Z,1018.1
2022-08-03T17:30:03.585Z,1018
2022-08-03T17:31:44.561Z,1018
2022-08-03T17:32:13.875Z,1018.1
2022-08-03T17:33:03.728Z,1018
2022-08-03T17:34:04.749Z,1018.1
2022-08-03T17:35:01.915Z,1018.1
2022-08-03T17:36:04.911Z,1018.1
2022-08-03T17:37:06.341Z,1018.1
2022-08-03T17:38:10.648Z,1018.1
2022-08-03T17:39:02.259Z,1018.1
2022-08-03T17:40:04.755Z,1018.1
2022-08-03T17:41:12.974Z,1018.1
2022-08-03T17:42:03.101Z,1018.2
2022-08-03T17:44:35.167Z,1018.1
2022-08-03T17:44:44.264Z,1018.2
2022-08-03T17:46:12.225Z,1018.3
2022-08-03T17:47:02.507Z,1018.2
2022-08-03T17:48:02.918Z,1018.3
2022-08-03T17:49:02.739Z,1018.3
2022-08-03T17:50:26.081Z,1018.2
2022-08-03T17:51:02.845Z,1018.3
2022-08-03T17:52:03.592Z,1018.2
2022-08-03T17:53:24.652Z,1018.3
2022-08-03T17:54:02.553Z,1018.2
2022-08-03T17:56:06.577Z,1018.2
2022-08-03T17:56:45.917Z,1018.2
2022-08-03T17:57:27.617Z,1018.2
2022-08-03T17:58:03.922Z,1018.2
2022-08-03T17:59:09.382Z,1018.2
2022-08-03T18:00:03.912Z,1018.2
2022-08-03T18:01:02.111Z,1018.3
2022-08-03T18:02:30.223Z,1018.2